Time;durP1;ratioP1;P1;durP2;ratioP2;P2;SDS_P1;SDS_P2;PMS_P1;PMS_P2;Temp;Humidity;BMP_temperature;BMP_pressure;BME280_temperature;BME280_humidity;BME280_pressure;Samples;Min_cycle;Max_cycle;Signal;HPM_P1;HPM_P2
2022/04/29 00:00:46;;;;;;;6.45;5.68;;;10.50;72.70;;;;;;4987050;28;20026;-87
2022/04/29 00:03:13;;;;;;;7.78;5.63;;;10.40;72.90;;;;;;4979832;28;20038;-87
2022/04/29 00:05:40;;;;;;;10.07;6.50;;;10.40;73.20;;;;;;4972301;28;20026;-88
2022/04/29 00:08:07;;;;;;;6.35;5.63;;;10.40;73.40;;;;;;4978873;28;20026;-88
2022/04/29 00:10:34;;;;;;;7.45;6.28;;;10.30;73.40;;;;;;4963826;28;20126;-86
2022/04/29 00:13:02;;;;;;;7.05;5.88;;;10.30;73.80;;;;;;4972487;28;20181;-87
2022/04/29 00:15:28;;;;;;;8.65;5.80;;;10.30;74.20;;;;;;4965016;28;20027;-85
2022/04/29 00:17:55;;;;;;;8.77;6.28;;;10.20;74.40;;;;;;4969613;28;20450;-87
2022/04/29 00:20:21;;;;;;;7.72;5.72;;;10.20;74.80;;;;;;4976970;28;20035;-88
2022/04/29 00:22:46;;;;;;;7.05;5.60;;;10.20;75.20;;;;;;4982695;28;20466;-88
2022/04/29 00:25:12;;;;;;;8.25;5.88;;;10.20;75.50;;;;;;4966286;28;20026;-86
2022/04/29 00:27:40;;;;;;;6.20;5.55;;;10.10;75.30;;;;;;4961278;28;20543;-85
2022/04/29 00:30:07;;;;;;;6.53;5.65;;;10.10;75.50;;;;;;4963761;28;20604;-86
2022/04/29 00:32:33;;;;;;;9.80;5.97;;;10.10;75.80;;;;;;4964988;28;20121;-86
2022/04/29 00:34:59;;;;;;;8.10;6.10;;;10.10;76.00;;;;;;4981443;28;20110;-87
2022/04/29 00:37:25;;;;;;;11.30;6.40;;;10.00;76.50;;;;;;4983647;28;20026;-85
2022/04/29 00:39:51;;;;;;;8.80;5.97;;;10.00;76.70;;;;;;4964440;28;20399;-86
2022/04/29 00:42:21;;;;;;;7.78;5.55;;;10.00;76.80;;;;;;4965078;28;20563;-87
2022/04/29 00:44:47;;;;;;;7.45;5.40;;;9.90;76.60;;;;;;4964176;28;21563;-87
2022/04/29 00:47:15;;;;;;;6.85;5.38;;;9.80;76.60;;;;;;4955309;28;20115;-87
2022/04/29 00:49:42;;;;;;;6.43;5.50;;;9.70;76.90;;;;;;4978279;28;20085;-87
2022/04/29 00:52:19;;;;;;;7.13;5.70;;;9.70;77.10;;;;;;4960109;28;20027;-86
2022/04/29 00:54:50;;;;;;;6.13;5.30;;;9.60;77.10;;;;;;4963363;28;20085;-85
2022/04/29 00:57:32;;;;;;;8.20;5.60;;;9.60;77.50;;;;;;4976221;28;20034;-87
2022/04/29 01:00:04;;;;;;;7.07;5.50;;;9.50;77.60;;;;;;4979284;28;20046;-88
2022/04/29 01:02:31;;;;;;;8.57;5.60;;;9.40;78.00;;;;;;4978874;28;20030;-88
2022/04/29 01:05:11;;;;;;;7.07;5.63;;;9.40;78.40;;;;;;4985760;28;20057;-87
2022/04/29 01:07:40;;;;;;;5.95;5.35;;;9.40;79.30;;;;;;4962577;28;20031;-87
2022/04/29 01:10:07;;;;;;;7.43;5.22;;;9.40;79.50;;;;;;4961662;28;20054;-86
2022/04/29 01:12:36;;;;;;;8.57;5.28;;;9.40;80.40;;;;;;4970150;28;20502;-87
2022/04/29 01:15:22;;;;;;;8.38;5.20;;;9.40;80.00;;;;;;4981368;28;20030;-87
2022/04/29 01:17:50;;;;;;;5.30;4.80;;;9.40;80.10;;;;;;4966780;28;20023;-86
2022/04/29 01:20:18;;;;;;;5.70;4.93;;;9.30;80.30;;;;;;4987165;28;20034;-86
2022/04/29 01:22:44;;;;;;;6.15;4.90;;;9.30;80.40;;;;;;4982861;28;20033;-87
2022/04/29 01:25:11;;;;;;;6.90;5.40;;;9.20;80.60;;;;;;4965417;28;20106;-86
2022/04/29 01:27:37;;;;;;;7.07;5.50;;;9.10;81.30;;;;;;4960778;28;20516;-88
2022/04/29 01:30:05;;;;;;;6.22;5.32;;;9.10;81.60;;;;;;4966643;28;20022;-86
2022/04/29 01:32:34;;;;;;;7.15;5.53;;;9.00;82.00;;;;;;4967617;28;20026;-87
2022/04/29 01:35:01;;;;;;;7.43;4.93;;;9.00;82.40;;;;;;4969838;28;20105;-87
2022/04/29 01:37:27;;;;;;;8.52;5.40;;;9.00;82.40;;;;;;4974568;28;20041;-88
2022/04/29 01:39:53;;;;;;;5.55;4.97;;;9.00;82.90;;;;;;4974921;28;20026;-86
2022/04/29 01:42:19;;;;;;;5.35;4.78;;;9.00;82.60;;;;;;4993017;28;20045;-87
2022/04/29 01:44:47;;;;;;;6.10;5.00;;;8.90;82.90;;;;;;4982518;28;20038;-87
2022/04/29 01:47:13;;;;;;;8.50;5.18;;;8.80;83.30;;;;;;4958441;28;20030;-88
2022/04/29 01:49:39;;;;;;;7.93;5.57;;;8.80;83.10;;;;;;4981969;28;20022;-86
2022/04/29 01:52:05;;;;;;;6.68;5.60;;;8.80;83.60;;;;;;4967282;28;20030;-86
2022/04/29 01:54:31;;;;;;;5.53;5.03;;;8.70;83.80;;;;;;4960400;28;20524;-87
2022/04/29 01:56:57;;;;;;;6.50;5.13;;;8.70;84.00;;;;;;4979383;28;20041;-87
2022/04/29 01:59:23;;;;;;;6.88;5.47;;;8.70;84.20;;;;;;4984720;28;20289;-86
2022/04/29 02:01:48;;;;;;;5.97;5.38;;;8.60;84.50;;;;;;4985904;28;20061;-86
2022/04/29 02:04:17;;;;;;;7.70;5.00;;;8.60;84.30;;;;;;4969411;28;20033;-85
2022/04/29 02:06:43;;;;;;;7.18;6.25;;;8.50;84.60;;;;;;4971486;28;20118;-87
2022/04/29 02:09:09;;;;;;;8.65;6.30;;;8.50;85.30;;;;;;4973622;28;20510;-87
2022/04/29 02:11:35;;;;;;;9.63;6.68;;;8.50;85.70;;;;;;4964842;28;20034;-86
2022/04/29 02:14:01;;;;;;;7.35;6.22;;;8.40;85.50;;;;;;4986125;28;20102;-86
2022/04/29 02:16:27;;;;;;;7.05;6.22;;;8.40;86.10;;;;;;4989893;28;20054;-85
2022/04/29 02:18:53;;;;;;;8.18;6.63;;;8.30;86.70;;;;;;4988198;28;20014;-85
2022/04/29 02:21:18;;;;;;;7.47;6.45;;;8.30;87.30;;;;;;4975982;28;20030;-86
2022/04/29 02:23:44;;;;;;;8.52;6.80;;;8.30;87.50;;;;;;4985000;28;20033;-87
2022/04/29 02:26:10;;;;;;;8.82;6.82;;;8.30;87.80;;;;;;4971555;28;20410;-86
2022/04/29 02:28:35;;;;;;;9.25;6.95;;;8.30;87.90;;;;;;4961162;28;20030;-87
2022/04/29 02:31:01;;;;;;;7.57;6.22;;;8.40;88.00;;;;;;4965044;28;20483;-86
2022/04/29 02:33:28;;;;;;;10.73;6.03;;;8.30;88.00;;;;;;4973874;28;20086;-86
2022/04/29 02:35:54;;;;;;;7.93;6.97;;;8.30;88.00;;;;;;4981236;28;20395;-86
2022/04/29 02:38:20;;;;;;;7.95;6.53;;;8.30;88.50;;;;;;4965409;28;20078;-86
2022/04/29 02:40:45;;;;;;;7.22;6.03;;;8.20;88.60;;;;;;4973223;28;20030;-86
2022/04/29 02:43:11;;;;;;;8.82;6.82;;;8.10;88.30;;;;;;4966810;28;20054;-85
2022/04/29 02:45:37;;;;;;;16.27;6.70;;;8.10;88.80;;;;;;4961753;28;20399;-86
2022/04/29 02:48:04;;;;;;;9.55;7.07;;;8.00;89.30;;;;;;4969534;28;20044;-84
2022/04/29 02:50:30;;;;;;;8.95;7.03;;;7.90;89.80;;;;;;4989684;28;20037;-86
2022/04/29 02:52:56;;;;;;;9.98;7.78;;;7.90;90.00;;;;;;4982163;28;20019;-85
2022/04/29 02:55:22;;;;;;;13.73;7.65;;;7.90;90.20;;;;;;4978093;28;20081;-86
2022/04/29 02:57:48;;;;;;;9.13;6.20;;;7.90;90.40;;;;;;4976648;28;20023;-86
2022/04/29 03:00:14;;;;;;;8.25;6.50;;;7.80;90.30;;;;;;4969010;28;20073;-86
2022/04/29 03:02:39;;;;;;;8.10;6.40;;;7.80;90.40;;;;;;4977995;28;20042;-87
2022/04/29 03:05:06;;;;;;;7.38;6.38;;;7.80;90.60;;;;;;4958679;28;20253;-87
2022/04/29 03:07:33;;;;;;;6.80;6.10;;;7.80;90.70;;;;;;4982733;28;20394;-87
2022/04/29 03:09:59;;;;;;;8.93;6.32;;;7.80;90.60;;;;;;4977592;28;20026;-87
2022/04/29 03:12:25;;;;;;;7.25;5.88;;;7.80;90.60;;;;;;4980037;28;20030;-86
2022/04/29 03:14:50;;;;;;;7.38;5.97;;;7.70;90.70;;;;;;4971512;28;20394;-86
2022/04/29 03:20:00;;;;;;;7.10;6.05;;;7.60;91.00;;;;;;4982273;28;20118;-85
2022/04/29 03:22:26;;;;;;;7.07;5.65;;;7.60;91.10;;;;;;4981301;28;20053;-87
2022/04/29 03:24:52;;;;;;;7.50;6.22;;;7.60;91.30;;;;;;4992224;28;20054;-87
2022/04/29 03:29:47;;;;;;;7.78;5.78;;;7.50;91.50;;;;;;4988278;28;20475;-86
2022/04/29 03:32:13;;;;;;;7.90;5.85;;;7.50;91.50;;;;;;4978822;28;20034;-87
2022/04/29 03:34:39;;;;;;;6.45;5.20;;;7.50;91.70;;;;;;4977128;28;20383;-85
2022/04/29 03:37:05;;;;;;;7.70;5.68;;;7.50;91.70;;;;;;4972434;28;20023;-87
2022/04/29 03:39:31;;;;;;;6.80;6.10;;;7.40;91.70;;;;;;4951286;28;20117;-86
2022/04/29 03:41:56;;;;;;;10.38;5.95;;;7.40;91.90;;;;;;4949490;28;20118;-87
2022/04/29 03:44:22;;;;;;;6.75;5.32;;;7.40;91.80;;;;;;4970747;28;20484;-87
2022/04/29 03:46:48;;;;;;;6.07;5.38;;;7.40;91.90;;;;;;4951844;28;20090;-87
2022/04/29 03:51:58;;;;;;;6.28;5.32;;;7.30;92.00;;;;;;4972590;28;20087;-86
2022/04/29 03:54:24;;;;;;;5.93;5.32;;;7.30;92.10;;;;;;4951934;28;20102;-87
2022/04/29 03:56:51;;;;;;;6.97;5.70;;;7.30;92.20;;;;;;4953379;28;20914;-86
2022/04/29 03:59:16;;;;;;;8.68;5.88;;;7.30;92.30;;;;;;4956237;28;20027;-87
2022/04/29 04:01:42;;;;;;;7.38;5.30;;;7.30;92.20;;;;;;4948869;28;20049;-86
2022/04/29 04:04:08;;;;;;;6.53;5.45;;;7.30;92.20;;;;;;4952012;28;20051;-87
2022/04/29 04:06:49;;;;;;;7.10;5.68;;;7.20;92.40;;;;;;4961163;28;20035;-85
2022/04/29 04:09:16;;;;;;;6.35;5.60;;;7.20;92.60;;;;;;4969346;28;20084;-87
2022/04/29 04:11:41;;;;;;;6.53;5.63;;;7.20;92.50;;;;;;4953815;28;20033;-85
2022/04/29 04:14:08;;;;;;;8.07;5.82;;;7.10;92.70;;;;;;4954161;28;20470;-86
2022/04/29 04:16:35;;;;;;;9.20;5.95;;;7.10;92.80;;;;;;4953865;28;20027;-87
2022/04/29 04:19:01;;;;;;;8.32;6.07;;;7.10;92.90;;;;;;4971436;28;20170;-87
2022/04/29 04:21:27;;;;;;;7.55;5.78;;;7.10;93.00;;;;;;4958209;28;20499;-87
2022/04/29 04:23:55;;;;;;;10.93;6.20;;;7.20;93.10;;;;;;4971179;28;20034;-86
2022/04/29 04:26:21;;;;;;;7.35;6.00;;;7.10;93.10;;;;;;4953994;28;20038;-87
2022/04/29 04:28:47;;;;;;;6.07;5.47;;;7.20;93.10;;;;;;4974713;28;20182;-87
2022/04/29 04:31:13;;;;;;;7.65;5.97;;;7.20;93.10;;;;;;4952764;28;20063;-86
2022/04/29 04:33:39;;;;;;;7.50;6.10;;;7.20;93.10;;;;;;4946616;28;20030;-87
2022/04/29 04:36:05;;;;;;;8.30;6.65;;;7.20;93.20;;;;;;4950614;28;20023;-86
2022/04/29 04:38:31;;;;;;;10.20;6.60;;;7.20;93.30;;;;;;4960742;28;20034;-87
2022/04/29 04:40:58;;;;;;;8.77;7.20;;;7.30;93.40;;;;;;4954681;28;20023;-86
2022/04/29 04:43:25;;;;;;;10.18;6.70;;;7.30;93.70;;;;;;4954400;28;20388;-87
2022/04/29 04:45:51;;;;;;;9.40;6.15;;;7.30;93.90;;;;;;4957848;28;20027;-88
2022/04/29 04:48:17;;;;;;;7.93;6.32;;;7.40;93.70;;;;;;4947362;28;20455;-86
2022/04/29 04:50:43;;;;;;;8.77;6.38;;;7.40;93.70;;;;;;4950980;28;20027;-88
2022/04/29 04:53:08;;;;;;;8.77;6.05;;;7.50;93.60;;;;;;4967113;28;20086;-88
2022/04/29 04:55:36;;;;;;;10.23;6.32;;;7.50;93.50;;;;;;4952303;28;20022;-87
2022/04/29 04:58:02;;;;;;;9.35;5.90;;;7.60;93.50;;;;;;4950210;28;20027;-86
2022/04/29 05:00:27;;;;;;;8.48;6.13;;;7.70;93.40;;;;;;4956785;28;20029;-86
2022/04/29 05:02:53;;;;;;;7.20;5.85;;;7.90;93.50;;;;;;4949981;28;20121;-89
2022/04/29 05:05:18;;;;;;;8.05;5.95;;;8.00;93.50;;;;;;4952840;28;20035;-87
2022/04/29 05:07:44;;;;;;;7.47;6.35;;;8.10;93.30;;;;;;4949646;28;20396;-87
2022/04/29 05:10:11;;;;;;;6.97;5.60;;;8.10;93.20;;;;;;4953729;28;20109;-87
2022/04/29 05:12:42;;;;;;;9.20;6.05;;;8.10;93.20;;;;;;4950436;28;20027;-85
2022/04/29 05:15:09;;;;;;;9.25;6.57;;;8.20;93.30;;;;;;4955085;28;20049;-88
2022/04/29 05:17:34;;;;;;;8.50;6.22;;;8.10;93.20;;;;;;4953446;28;20083;-88
2022/04/29 05:20:00;;;;;;;7.68;6.00;;;8.10;93.30;;;;;;4949439;29;20038;-88
2022/04/29 05:22:29;;;;;;;8.43;5.57;;;8.20;93.40;;;;;;4985965;28;20011;-84
2022/04/29 05:24:55;;;;;;;9.20;6.60;;;8.30;93.60;;;;;;4978858;28;20023;-83
2022/04/29 05:27:21;;;;;;;9.32;6.18;;;8.40;93.50;;;;;;4974272;28;20039;-85
2022/04/29 05:29:47;;;;;;;8.32;6.07;;;8.40;93.40;;;;;;4986352;28;20035;-87
2022/04/29 05:32:12;;;;;;;9.30;6.07;;;8.40;93.50;;;;;;4955849;28;20484;-87
2022/04/29 05:34:38;;;;;;;7.35;5.72;;;8.40;93.60;;;;;;4956231;28;20393;-86
2022/04/29 05:37:04;;;;;;;8.98;6.30;;;8.40;93.60;;;;;;4981429;28;20026;-87
2022/04/29 05:42:18;;;;;;;9.13;6.22;;;8.50;93.70;;;;;;4970668;28;20045;-87
2022/04/29 05:44:44;;;;;;;9.13;6.32;;;8.60;93.80;;;;;;4972544;28;20022;-88
2022/04/29 05:47:10;;;;;;;9.73;6.43;;;8.70;94.10;;;;;;4963208;28;20506;-86
2022/04/29 05:49:37;;;;;;;9.57;6.07;;;8.80;94.00;;;;;;4956813;28;20154;-86
2022/04/29 05:52:04;;;;;;;8.05;6.30;;;8.90;94.00;;;;;;4971329;28;20026;-86
2022/04/29 05:54:31;;;;;;;7.13;6.05;;;9.00;94.00;;;;;;4963310;28;20023;-90
2022/04/29 05:56:57;;;;;;;8.07;6.13;;;9.10;94.00;;;;;;4955015;28;20033;-90
2022/04/29 05:59:22;;;;;;;13.68;6.70;;;9.10;94.10;;;;;;4956159;28;20037;-88
2022/04/29 06:01:48;;;;;;;11.52;7.07;;;9.20;93.90;;;;;;4954494;28;20023;-85
2022/04/29 06:04:14;;;;;;;11.10;6.43;;;9.20;94.00;;;;;;4974341;28;20033;-82
2022/04/29 06:06:39;;;;;;;8.20;6.00;;;9.30;94.00;;;;;;4975805;28;20082;-84
2022/04/29 06:09:05;;;;;;;9.57;6.53;;;9.40;94.20;;;;;;4995988;28;20019;-84
2022/04/29 06:11:30;;;;;;;8.05;6.55;;;9.50;94.10;;;;;;4984555;28;20041;-87
2022/04/29 06:13:56;;;;;;;11.93;6.70;;;9.60;94.00;;;;;;4947425;28;20549;-88
2022/04/29 06:16:22;;;;;;;13.18;6.10;;;9.60;93.90;;;;;;4946879;28;20076;-87
2022/04/29 06:18:48;;;;;;;12.50;7.05;;;9.70;94.10;;;;;;4955165;28;20042;-89
2022/04/29 06:21:16;;;;;;;12.30;6.97;;;9.70;94.20;;;;;;4956158;28;20027;-88
2022/04/29 06:23:42;;;;;;;13.05;7.15;;;9.80;94.20;;;;;;4971266;28;20547;-88
2022/04/29 06:26:08;;;;;;;9.48;6.70;;;9.80;94.20;;;;;;4957079;28;20123;-88
2022/04/29 06:28:33;;;;;;;10.40;6.65;;;9.90;94.40;;;;;;4953331;28;20114;-87
2022/04/29 06:30:59;;;;;;;12.48;6.93;;;10.00;94.40;;;;;;4971705;28;20433;-86
2022/04/29 06:33:24;;;;;;;8.95;7.05;;;10.20;94.50;;;;;;4977658;28;20019;-87
2022/04/29 06:35:50;;;;;;;15.05;7.07;;;10.40;94.30;;;;;;4948215;28;20393;-86
2022/04/29 06:38:16;;;;;;;11.85;6.20;;;10.50;94.30;;;;;;4953821;28;20035;-86
2022/04/29 06:40:43;;;;;;;11.73;6.95;;;10.70;94.20;;;;;;4951419;28;20109;-86
2022/04/29 06:43:08;;;;;;;12.82;7.20;;;10.90;94.10;;;;;;4955479;28;20023;-87
2022/04/29 06:45:34;;;;;;;12.10;6.60;;;11.10;94.10;;;;;;4960569;28;20039;-86
2022/04/29 06:48:00;;;;;;;10.88;7.05;;;11.30;94.00;;;;;;4952653;28;20078;-87
2022/04/29 06:50:25;;;;;;;11.65;6.43;;;11.50;93.90;;;;;;4971729;28;20058;-87
2022/04/29 06:52:51;;;;;;;11.73;7.10;;;11.70;93.50;;;;;;4960554;28;20057;-86
2022/04/29 06:55:17;;;;;;;8.95;6.90;;;11.80;93.50;;;;;;4954693;28;20019;-86
2022/04/29 06:57:42;;;;;;;10.48;7.13;;;12.00;93.30;;;;;;4950186;28;20039;-86
2022/04/29 07:00:08;;;;;;;10.38;7.38;;;12.00;93.10;;;;;;4965009;28;20464;-86
2022/04/29 07:02:34;;;;;;;12.85;7.03;;;12.10;93.30;;;;;;4952275;28;20157;-86
2022/04/29 07:05:01;;;;;;;11.55;7.90;;;12.20;93.50;;;;;;4947408;28;20113;-86
2022/04/29 07:07:28;;;;;;;10.07;7.57;;;12.30;93.60;;;;;;4960124;28;20023;-86
2022/04/29 07:09:54;;;;;;;10.30;7.43;;;12.50;93.50;;;;;;4962962;28;20023;-86
2022/04/29 07:12:20;;;;;;;8.82;6.72;;;12.70;93.40;;;;;;4957209;28;20649;-86
2022/04/29 07:14:46;;;;;;;14.90;7.03;;;13.00;93.20;;;;;;4954258;28;20022;-86
2022/04/29 07:17:11;;;;;;;9.10;6.40;;;13.20;93.10;;;;;;4947363;28;20035;-86
2022/04/29 07:19:37;;;;;;;12.65;6.80;;;13.40;93.00;;;;;;4960779;28;20031;-86
2022/04/29 07:22:06;;;;;;;11.15;7.00;;;13.70;92.80;;;;;;4960320;28;20030;-86
2022/04/29 07:24:31;;;;;;;14.60;6.53;;;13.90;92.80;;;;;;4958906;28;20027;-87
2022/04/29 07:26:57;;;;;;;7.57;6.78;;;14.10;92.60;;;;;;4957643;28;20428;-86
2022/04/29 07:29:23;;;;;;;10.52;6.80;;;14.30;92.50;;;;;;4959757;28;20090;-87
2022/04/29 07:31:49;;;;;;;9.20;6.00;;;14.60;92.50;;;;;;4977213;28;20102;-86
2022/04/29 07:34:15;;;;;;;11.85;6.25;;;14.90;92.30;;;;;;4956601;28;20118;-85
2022/04/29 07:42:09;;;;;;;8.13;6.55;;;15.70;91.30;;;;;;4974144;28;20647;-87
2022/04/29 07:44:34;;;;;;;7.82;5.88;;;16.10;90.90;;;;;;4975786;28;20027;-85
2022/04/29 07:47:00;;;;;;;9.05;6.50;;;16.50;90.60;;;;;;4983227;28;20717;-85
2022/04/29 07:49:26;;;;;;;6.10;5.05;;;16.90;89.80;;;;;;4974523;28;20027;-86
2022/04/29 07:51:51;;;;;;;9.95;5.65;;;17.10;87.90;;;;;;4970413;28;20483;-86
2022/04/29 07:54:17;;;;;;;7.93;4.97;;;17.40;86.50;;;;;;4956480;28;20030;-86
2022/04/29 07:56:43;;;;;;;7.30;5.03;;;17.60;85.30;;;;;;4973561;28;20475;-86
2022/04/29 07:59:09;;;;;;;6.22;4.53;;;18.10;83.80;;;;;;4957223;28;20090;-86
2022/04/29 08:01:38;;;;;;;6.18;4.57;;;18.50;82.40;;;;;;4968632;28;20065;-86
2022/04/29 08:04:04;;;;;;;6.05;4.47;;;18.90;80.50;;;;;;4956075;28;20444;-85
2022/04/29 08:06:30;;;;;;;7.15;4.85;;;19.40;78.90;;;;;;4960769;28;20030;-86
2022/04/29 08:08:56;;;;;;;10.25;5.00;;;19.70;77.30;;;;;;4960339;28;20550;-86
2022/04/29 08:11:22;;;;;;;7.35;4.80;;;19.90;76.20;;;;;;4954720;28;20026;-86
2022/04/29 08:13:48;;;;;;;6.60;5.07;;;20.10;75.10;;;;;;4953135;28;20020;-86
2022/04/29 08:16:15;;;;;;;7.57;4.95;;;20.20;73.90;;;;;;4954541;28;20038;-86
2022/04/29 08:18:41;;;;;;;4.63;4.10;;;20.40;73.40;;;;;;4956473;28;20026;-86
2022/04/29 08:21:08;;;;;;;9.85;4.50;;;20.50;72.20;;;;;;4979638;28;20023;-86
2022/04/29 08:23:34;;;;;;;6.20;4.95;;;20.50;70.70;;;;;;4954744;28;20050;-87
2022/04/29 08:26:00;;;;;;;4.38;3.97;;;20.50;70.00;;;;;;4955545;28;20057;-86
2022/04/29 08:28:28;;;;;;;6.00;4.10;;;20.50;69.20;;;;;;4964400;28;20440;-86
2022/04/29 08:30:54;;;;;;;4.45;4.05;;;20.40;68.80;;;;;;4955755;28;20084;-86
2022/04/29 08:33:21;;;;;;;5.13;4.18;;;20.40;68.20;;;;;;4975125;28;20031;-86
2022/04/29 08:35:47;;;;;;;5.40;3.42;;;20.40;67.50;;;;;;4950054;28;20102;-86
2022/04/29 08:38:13;;;;;;;6.15;4.30;;;20.20;66.50;;;;;;4947472;29;20068;-86
2022/04/29 08:40:44;;;;;;;4.57;3.92;;;20.20;66.20;;;;;;4955773;28;20508;-86
2022/04/29 08:43:14;;;;;;;4.32;3.92;;;20.20;65.30;;;;;;4964764;28;20026;-86
2022/04/29 08:45:40;;;;;;;4.20;3.80;;;20.30;65.30;;;;;;4956320;28;20117;-86
2022/04/29 08:48:07;;;;;;;5.95;3.50;;;20.50;65.00;;;;;;4972905;28;20034;-86
2022/04/29 08:50:33;;;;;;;4.85;3.80;;;20.60;64.20;;;;;;4973993;28;20627;-86
2022/04/29 08:52:59;;;;;;;5.13;3.42;;;20.50;63.40;;;;;;4952268;28;20055;-86
2022/04/29 09:01:03;;;;;;;3.20;2.90;;;20.20;62.70;;;;;;4980834;28;20037;-86
2022/04/29 09:03:29;;;;;;;3.15;2.83;;;20.10;62.00;;;;;;4972077;28;20097;-86
2022/04/29 09:05:55;;;;;;;5.25;2.80;;;20.10;62.60;;;;;;4962037;28;20113;-85
2022/04/29 09:08:23;;;;;;;3.30;2.53;;;20.00;61.70;;;;;;4953904;28;20046;-85
2022/04/29 09:10:54;;;;;;;2.60;2.40;;;20.00;60.80;;;;;;4941233;29;20024;-86
2022/04/29 09:13:24;;;;;;;6.43;2.50;;;19.80;59.30;;;;;;4951351;28;20121;-85
2022/04/29 09:15:49;;;;;;;4.82;2.50;;;19.70;59.50;;;;;;4952892;28;20289;-85
2022/04/29 09:18:34;;;;;;;2.95;2.05;;;19.80;59.20;;;;;;4973924;28;20031;-85
2022/04/29 09:21:14;;;;;;;4.93;2.65;;;19.90;59.00;;;;;;4992051;28;20026;-86
2022/04/29 09:23:44;;;;;;;5.18;2.40;;;20.10;57.50;;;;;;4980288;28;20411;-86
2022/04/29 09:28:40;;;;;;;6.20;2.50;;;20.50;57.10;;;;;;4988428;28;20046;-86
2022/04/29 09:31:06;;;;;;;3.35;2.25;;;20.60;56.50;;;;;;4984927;28;20030;-86
2022/04/29 09:33:35;;;;;;;3.78;2.30;;;20.70;56.00;;;;;;4977022;28;20081;-86
2022/04/29 09:36:01;;;;;;;3.00;2.45;;;20.90;56.00;;;;;;4998943;28;20422;-86
2022/04/29 09:41:21;;;;;;;4.53;2.83;;;21.20;55.10;;;;;;5007001;28;20045;-85
2022/04/29 09:43:47;;;;;;;2.47;2.25;;;21.70;54.30;;;;;;4985799;28;20026;-85
2022/04/29 09:46:23;;;;;;;4.40;2.35;;;22.00;53.40;;;;;;4973364;28;20486;-84
2022/04/29 09:49:06;;;;;;;2.33;2.13;;;22.30;52.30;;;;;;4990273;28;20030;-85
2022/04/29 09:51:46;;;;;;;2.38;2.15;;;22.50;52.10;;;;;;4977947;28;20105;-86
2022/04/29 09:54:21;;;;;;;2.30;2.10;;;22.80;51.90;;;;;;4988025;28;20033;-86
2022/04/29 09:57:02;;;;;;;2.60;2.40;;;23.30;51.30;;;;;;4993811;28;20029;-87
2022/04/29 09:59:49;;;;;;;6.20;2.67;;;24.00;50.30;;;;;;4984103;28;20042;-86
2022/04/29 10:02:17;;;;;;;3.17;2.15;;;24.40;49.80;;;;;;5009139;28;20409;-85
2022/04/29 10:04:45;;;;;;;3.80;2.45;;;24.30;49.50;;;;;;4988079;28;20077;-86
2022/04/29 10:07:14;;;;;;;2.97;2.17;;;24.00;48.70;;;;;;4972155;28;20034;-86
2022/04/29 10:09:45;;;;;;;2.42;2.22;;;23.90;48.60;;;;;;4986350;28;20511;-87
2022/04/29 10:12:16;;;;;;;4.97;2.55;;;24.00;48.10;;;;;;4968937;28;20038;-86
2022/04/29 10:14:43;;;;;;;2.85;2.55;;;23.60;48.40;;;;;;4990788;28;20363;-85
2022/04/29 10:22:53;;;;;;;3.35;1.90;;;22.50;49.60;;;;;;4996824;28;20140;-86
2022/04/29 10:25:20;;;;;;;3.25;2.13;;;22.30;50.20;;;;;;4988838;28;20037;-86
2022/04/29 10:27:49;;;;;;;2.55;2.13;;;22.20;50.00;;;;;;4976609;28;20475;-85
2022/04/29 10:30:28;;;;;;;5.13;2.30;;;22.40;49.80;;;;;;4973631;28;20410;-85
2022/04/29 10:33:04;;;;;;;3.35;2.28;;;22.90;48.70;;;;;;4969103;28;20039;-86
2022/04/29 10:35:39;;;;;;;2.78;2.33;;;23.10;48.60;;;;;;4977055;28;20018;-85
2022/04/29 10:38:14;;;;;;;4.10;2.47;;;22.70;48.60;;;;;;4976695;28;20039;-86
2022/04/29 10:40:40;;;;;;;2.50;2.10;;;22.40;48.90;;;;;;4998204;28;20033;-84
2022/04/29 10:43:10;;;;;;;3.67;2.60;;;22.00;49.70;;;;;;4987598;28;20375;-85
2022/04/29 10:46:05;;;;;;;3.10;2.55;;;21.60;50.10;;;;;;4977822;28;20109;-85
2022/04/29 10:48:35;;;;;;;3.80;2.17;;;21.30;50.10;;;;;;4977378;28;20030;-85
2022/04/29 10:51:21;;;;;;;3.15;2.45;;;21.10;50.50;;;;;;4976112;28;20031;-86
2022/04/29 10:53:49;;;;;;;4.30;2.28;;;20.90;50.70;;;;;;4976928;28;20099;-85
2022/04/29 10:56:30;;;;;;;6.00;2.70;;;20.90;51.10;;;;;;4976194;28;20690;-85
2022/04/29 10:59:13;;;;;;;7.35;2.55;;;21.00;51.10;;;;;;4974058;28;20022;-85
2022/04/29 11:01:40;;;;;;;5.75;3.30;;;21.10;50.70;;;;;;5006245;28;20041;-84
2022/04/29 11:04:07;;;;;;;4.85;2.90;;;21.40;51.00;;;;;;4977720;28;20029;-86
2022/04/29 11:06:37;;;;;;;4.50;2.60;;;21.50;51.00;;;;;;4995811;28;20026;-86
2022/04/29 11:09:23;;;;;;;2.70;2.50;;;21.80;50.90;;;;;;4993502;28;20021;-86
2022/04/29 11:11:49;;;;;;;5.82;2.92;;;22.00;50.70;;;;;;4974258;28;20030;-85
2022/04/29 11:14:15;;;;;;;3.47;2.58;;;22.20;50.10;;;;;;4992899;28;20194;-85
2022/04/29 11:17:08;;;;;;;2.63;2.42;;;22.20;50.00;;;;;;4994013;28;20032;-84
2022/04/29 11:19:47;;;;;;;3.92;2.90;;;22.30;49.80;;;;;;4995081;28;20034;-84
2022/04/29 11:25:05;;;;;;;10.38;3.05;;;22.30;49.60;;;;;;4987411;28;20069;-87
2022/04/29 11:27:37;;;;;;;5.35;3.10;;;22.20;50.10;;;;;;4998475;28;20080;-86
2022/04/29 11:30:03;;;;;;;3.80;2.83;;;22.10;49.90;;;;;;4993771;28;20018;-87
2022/04/29 11:32:47;;;;;;;4.40;3.30;;;22.00;49.80;;;;;;4991747;28;20273;-88
2022/04/29 11:35:28;;;;;;;6.05;3.13;;;22.00;49.80;;;;;;4979947;28;20100;-89
2022/04/29 11:38:02;;;;;;;3.83;2.95;;;22.00;49.70;;;;;;4978848;28;20049;-87
2022/04/29 11:40:36;;;;;;;3.17;2.88;;;22.00;49.70;;;;;;4976079;28;20039;-89
2022/04/29 11:47:43;;;;;;;4.30;2.70;;;22.20;49.80;;;;;;4916184;29;20456;-90
2022/04/29 11:50:12;;;;;;;3.58;2.38;;;22.20;50.00;;;;;;4913915;28;20094;-88
2022/04/29 11:52:39;;;;;;;5.15;2.97;;;22.20;50.10;;;;;;4977813;28;20106;-88
2022/04/29 11:55:14;;;;;;;3.63;2.55;;;22.20;50.00;;;;;;4973755;28;20020;-88
2022/04/29 11:58:25;;;;;;;4.13;3.00;;;22.10;49.80;;;;;;4975744;28;20105;-88
2022/04/29 12:01:29;;;;;;;3.53;2.90;;;22.00;49.60;;;;;;4975022;28;21308;-89
2022/04/29 12:03:58;;;;;;;6.20;3.45;;;21.90;50.00;;;;;;4978005;28;20037;-86
2022/04/29 12:06:24;;;;;;;5.57;3.03;;;21.90;49.90;;;;;;4973213;28;20037;-89
2022/04/29 12:08:50;;;;;;;3.88;2.97;;;21.80;49.70;;;;;;4973194;28;20018;-89
2022/04/29 12:11:28;;;;;;;5.28;3.40;;;21.80;49.70;;;;;;4978690;28;20042;-88
2022/04/29 12:13:54;;;;;;;8.15;3.28;;;21.70;49.70;;;;;;4976685;28;20027;-89
2022/04/29 12:16:20;;;;;;;3.53;3.22;;;21.60;49.70;;;;;;4993341;28;20106;-89
2022/04/29 12:18:48;;;;;;;3.80;3.40;;;21.40;49.90;;;;;;4991364;28;20088;-90
2022/04/29 12:21:24;;;;;;;4.82;3.35;;;21.30;49.70;;;;;;4988542;28;20085;-86
2022/04/29 12:23:50;;;;;;;4.90;3.25;;;21.20;49.70;;;;;;4984952;28;20026;-86
2022/04/29 12:26:16;;;;;;;5.30;3.45;;;21.10;50.10;;;;;;5005860;28;20053;-85
2022/04/29 12:28:41;;;;;;;4.40;2.97;;;21.10;50.10;;;;;;4968142;28;20037;-86
2022/04/29 12:36:49;;;;;;;4.03;2.75;;;20.90;50.30;;;;;;4976338;28;20045;-84
2022/04/29 12:39:24;;;;;;;4.25;3.40;;;20.90;50.80;;;;;;4970305;28;20031;-83
2022/04/29 12:42:06;;;;;;;5.78;2.92;;;20.80;50.90;;;;;;4977503;28;20077;-87
2022/04/29 12:47:38;;;;;;;4.88;2.88;;;20.80;51.20;;;;;;4982412;28;20038;-87
2022/04/29 12:50:37;;;;;;;5.60;2.65;;;20.80;51.30;;;;;;4982311;28;20113;-87
2022/04/29 12:53:28;;;;;;;7.13;3.05;;;20.80;51.00;;;;;;4978089;28;20343;-86
2022/04/29 12:55:56;;;;;;;6.70;2.80;;;20.70;50.90;;;;;;4982263;28;20022;-87
2022/04/29 12:58:29;;;;;;;3.00;2.75;;;20.70;50.90;;;;;;4977142;28;20638;-85
2022/04/29 13:00:55;;;;;;;5.28;2.70;;;20.70;50.70;;;;;;4982166;28;20081;-87
2022/04/29 13:03:29;;;;;;;7.28;3.00;;;20.70;51.20;;;;;;4980709;28;20563;-86
2022/04/29 13:05:57;;;;;;;3.97;3.17;;;20.70;50.90;;;;;;4985109;28;20101;-87
2022/04/29 13:08:23;;;;;;;4.00;2.50;;;20.80;51.10;;;;;;4990376;28;20164;-87
2022/04/29 13:10:53;;;;;;;3.33;3.03;;;20.80;51.10;;;;;;4980927;28;20128;-86
2022/04/29 13:13:20;;;;;;;3.10;2.80;;;20.80;51.10;;;;;;4973435;28;20037;-87
2022/04/29 13:15:48;;;;;;;3.75;2.70;;;20.80;50.90;;;;;;4984535;28;20018;-87
2022/04/29 13:18:19;;;;;;;2.95;2.65;;;20.90;51.20;;;;;;4983008;28;20041;-87
2022/04/29 13:20:46;;;;;;;3.55;2.67;;;21.00;51.00;;;;;;4975898;28;20125;-86
2022/04/29 13:23:11;;;;;;;3.97;2.33;;;21.00;51.10;;;;;;4981020;28;20459;-87
2022/04/29 13:25:38;;;;;;;4.82;2.60;;;21.00;50.90;;;;;;4965397;28;20041;-86
2022/04/29 13:28:05;;;;;;;3.38;2.60;;;21.00;50.80;;;;;;4965743;28;20129;-88
2022/04/29 13:30:31;;;;;;;4.35;2.85;;;21.00;50.70;;;;;;4964459;28;20075;-87
2022/04/29 13:32:57;;;;;;;3.47;2.60;;;21.00;50.60;;;;;;4967112;28;20022;-89
2022/04/29 13:35:23;;;;;;;3.55;2.97;;;21.00;50.70;;;;;;4980692;28;20026;-89
2022/04/29 13:37:49;;;;;;;2.83;2.63;;;21.00;50.50;;;;;;4966102;28;20030;-88
2022/04/29 13:40:15;;;;;;;3.67;2.95;;;21.00;50.50;;;;;;4969189;28;20169;-89
2022/04/29 13:42:41;;;;;;;16.35;12.40;;;20.90;50.40;;;;;;4967742;28;20030;-89
2022/04/29 13:45:10;;;;;;;5.32;2.90;;;20.80;50.50;;;;;;4964528;28;20041;-88